createdAt,value
2019-05-29T00:00:45.914Z,97780.16
2019-05-29T00:01:53.785Z,97782.02
2019-05-29T00:03:02.732Z,97788.60
2019-05-29T00:04:12.286Z,97787.26
2019-05-29T00:05:21.058Z,97787.90
2019-05-29T00:06:28.965Z,97783.91
2019-05-29T00:07:37.741Z,97791.64
2019-05-29T00:08:45.613Z,97789.47
2019-05-29T00:09:54.487Z,97786.16
2019-05-29T00:11:02.581Z,97790.97
2019-05-29T00:12:17.225Z,97785.60
2019-05-29T00:13:21.405Z,97788.77
2019-05-29T00:14:30.146Z,97791.29
2019-05-29T00:15:38.109Z,97789.95
2019-05-29T00:16:47.145Z,97789.95
2019-05-29T00:17:54.953Z,97797.84
2019-05-29T00:19:03.676Z,97795.00
2019-05-29T00:20:12.732Z,97799.70
2019-05-29T00:21:21.667Z,97796.25
2019-05-29T00:22:29.790Z,97804.55
2019-05-29T00:23:38.701Z,97802.06
2019-05-29T00:24:47.007Z,97801.36
2019-05-29T00:25:55.687Z,97801.36
2019-05-29T00:27:03.577Z,97800.21
2019-05-29T00:28:12.638Z,97808.42
2019-05-29T00:29:20.748Z,97800.21
2019-05-29T00:30:29.419Z,97801.20
2019-05-29T00:31:37.817Z,97799.70
2019-05-29T00:32:45.863Z,97800.28
2019-05-29T00:33:53.954Z,97809.16
2019-05-29T00:35:02.742Z,97809.09
2019-05-29T00:36:12.279Z,97804.55
2019-05-29T00:37:20.967Z,97813.08
2019-05-29T00:38:28.975Z,97811.46
2019-05-29T00:39:38.281Z,97809.69
2019-05-29T00:40:46.861Z,97812.77
2019-05-29T00:41:55.625Z,97810.08
2019-05-29T00:43:03.851Z,97811.03
2019-05-29T00:44:13.852Z,97812.89
2019-05-29T00:45:22.226Z,97812.61
2019-05-29T00:46:31.168Z,97814.78
2019-05-29T00:47:39.180Z,97817.34
2019-05-29T00:48:48.194Z,97820.34
2019-05-29T00:49:56.281Z,97820.34
2019-05-29T00:51:05.195Z,97819.28
2019-05-29T00:52:14.289Z,97825.36
2019-05-29T00:53:23.340Z,97825.27
2019-05-29T00:54:31.648Z,97826.65
2019-05-29T00:55:40.416Z,97826.97
2019-05-29T00:56:48.985Z,97832.34
2019-05-29T00:57:57.665Z,97832.62
2019-05-29T00:59:05.711Z,97837.03
2019-05-29T01:00:15.976Z,97834.34
2019-05-29T01:01:24.704Z,97832.49
2019-05-29T01:02:33.204Z,97838.85
2019-05-29T01:03:41.438Z,97837.19
2019-05-29T01:04:50.454Z,97836.36
2019-05-29T01:05:58.384Z,97840.70
2019-05-29T01:07:07.080Z,97842.40
2019-05-29T01:08:16.430Z,97838.22
2019-05-29T01:09:25.366Z,97843.27
2019-05-29T01:10:33.189Z,97848.19
2019-05-29T01:11:42.067Z,97850.45
2019-05-29T01:12:50.000Z,97847.33
2019-05-29T01:13:58.863Z,97849.34
2019-05-29T01:15:09.500Z,97849.85
2019-05-29T01:16:19.568Z,97848.03
2019-05-29T01:17:27.647Z,97844.36
2019-05-29T01:18:36.763Z,97851.73
2019-05-29T01:19:45.256Z,97852.37
2019-05-29T01:20:53.839Z,97846.47
2019-05-29T01:22:01.793Z,97857.01
2019-05-29T01:23:10.488Z,97853.49
2019-05-29T01:24:18.650Z,97852.80
2019-05-29T01:25:27.240Z,97848.64
2019-05-29T01:26:35.145Z,97853.20
2019-05-29T01:27:43.736Z,97849.56
2019-05-29T01:28:51.689Z,97853.20
2019-05-29T01:30:00.551Z,97850.07
2019-05-29T01:31:08.589Z,97855.76
2019-05-29T01:32:17.571Z,97854.73
2019-05-29T01:33:25.755Z,97852.25
2019-05-29T01:34:34.360Z,97853.65
2019-05-29T01:35:42.693Z,97854.09
2019-05-29T01:36:51.547Z,97852.63
2019-05-29T01:37:59.332Z,97848.47
2019-05-29T01:39:09.792Z,97853.84
2019-05-29T01:40:21.962Z,97849.50
2019-05-29T01:41:28.823Z,97849.75
2019-05-29T01:42:37.006Z,97847.48
2019-05-29T01:43:45.745Z,97852.53
2019-05-29T01:45:07.187Z,97848.63
2019-05-29T01:46:03.937Z,97848.56
2019-05-29T01:47:11.991Z,97854.59
2019-05-29T01:48:21.617Z,97857.25
2019-05-29T01:49:29.810Z,97851.56
2019-05-29T01:50:38.793Z,97850.31
2019-05-29T01:51:46.951Z,97854.28
2019-05-29T01:52:55.860Z,97860.28
2019-05-29T01:54:03.949Z,97855.67
2019-05-29T01:55:12.765Z,97857.36
2019-05-29T01:56:21.916Z,97855.06
2019-05-29T01:57:30.790Z,97864.77
2019-05-29T01:58:38.804Z,97867.80
2019-05-29T01:59:47.718Z,97866.83
2019-05-29T02:00:55.691Z,97869.14
2019-05-29T02:02:04.631Z,97874.77
2019-05-29T02:03:12.725Z,97877.23
2019-05-29T02:04:21.849Z,97872.91
2019-05-29T02:05:30.432Z,97870.10
2019-05-29T02:06:39.168Z,97871.58
2019-05-29T02:07:47.444Z,97875.30
2019-05-29T02:08:56.080Z,97869.78
2019-05-29T02:10:05.686Z,97875.30
2019-05-29T02:11:15.060Z,97880.84
2019-05-29T02:12:24.146Z,97883.34
2019-05-29T02:13:33.675Z,97882.88
2019-05-29T02:14:41.761Z,97884.87
2019-05-29T02:15:50.505Z,97886.02
2019-05-29T02:16:58.477Z,97887.04
2019-05-29T02:18:07.312Z,97886.77
2019-05-29T02:19:15.717Z,97889.08
2019-05-29T02:20:25.267Z,97894.92
2019-05-29T02:21:33.543Z,97898.78
2019-05-29T02:22:42.421Z,97897.26
2019-05-29T02:23:50.231Z,97896.74
2019-05-29T02:24:59.027Z,97901.47
2019-05-29T02:26:07.029Z,97901.52
2019-05-29T02:27:17.281Z,97911.23
2019-05-29T02:28:26.789Z,97906.58
2019-05-29T02:29:35.668Z,97912.26
2019-05-29T02:30:43.827Z,97916.80
2019-05-29T02:31:52.542Z,97910.10
2019-05-29T02:33:00.860Z,97908.25
2019-05-29T02:34:09.804Z,97916.16
2019-05-29T02:35:20.104Z,97913.67
2019-05-29T02:36:28.914Z,97915.71
2019-05-29T02:37:37.131Z,97925.80
2019-05-29T02:38:45.818Z,97922.10
2019-05-29T02:39:53.824Z,97929.67
2019-05-29T02:41:02.435Z,97929.55
2019-05-29T02:42:10.820Z,97927.84
2019-05-29T02:43:21.260Z,97931.71
2019-05-29T02:44:29.718Z,97935.09
2019-05-29T02:45:53.657Z,97937.27
2019-05-29T02:46:48.286Z,97938.80
2019-05-29T02:47:57.198Z,97939.25
2019-05-29T02:49:05.354Z,97939.30
2019-05-29T02:50:14.519Z,97939.95
2019-05-29T02:51:24.231Z,97931.59
2019-05-29T02:52:33.472Z,97942.95
2019-05-29T02:53:41.471Z,97940.84
2019-05-29T02:54:50.399Z,97942.34
2019-05-29T02:55:58.526Z,97944.52
2019-05-29T02:57:07.463Z,97941.66
2019-05-29T02:58:15.432Z,97950.39
2019-05-29T02:59:25.593Z,97947.37
2019-05-29T03:00:53.506Z,97948.70
2019-05-29T03:02:02.372Z,97947.86
2019-05-29T03:03:10.668Z,97945.31
2019-05-29T03:04:19.595Z,97944.94
2019-05-29T03:05:28.143Z,97947.94
2019-05-29T03:06:37.122Z,97949.50
2019-05-29T03:07:45.259Z,97951.67
2019-05-29T03:08:54.599Z,97952.33
2019-05-29T03:10:02.817Z,97950.34
2019-05-29T03:11:12.004Z,97957.17
2019-05-29T03:12:20.326Z,97957.55
2019-05-29T03:13:30.530Z,97957.09
2019-05-29T03:14:38.905Z,97959.45
2019-05-29T03:15:47.964Z,97959.28
2019-05-29T03:16:55.883Z,97960.11
2019-05-29T03:18:04.470Z,97966.11
2019-05-29T03:19:12.773Z,97968.80
2019-05-29T03:20:21.734Z,97965.10
2019-05-29T03:21:30.655Z,97964.81
2019-05-29T03:22:40.295Z,97971.00
2019-05-29T03:23:48.422Z,97972.67
2019-05-29T03:24:56.990Z,97971.52
2019-05-29T03:26:05.362Z,97974.20
2019-05-29T03:27:13.401Z,97975.22
2019-05-29T03:28:21.494Z,97976.55
2019-05-29T03:29:31.824Z,97972.39
2019-05-29T03:30:45.676Z,97978.25
2019-05-29T03:31:50.352Z,97986.94
2019-05-29T03:32:58.294Z,97981.11
2019-05-29T03:34:07.064Z,97984.62
2019-05-29T03:35:15.290Z,97982.95
2019-05-29T03:36:24.070Z,97984.30
2019-05-29T03:37:32.521Z,97986.29
2019-05-29T03:38:41.496Z,97992.00
2019-05-29T03:39:49.557Z,97995.01
2019-05-29T03:40:58.450Z,97990.52
2019-05-29T03:42:06.554Z,97989.69
2019-05-29T03:43:15.568Z,98001.23
2019-05-29T03:44:23.588Z,97997.21
2019-05-29T03:45:34.040Z,98003.07
2019-05-29T03:46:45.708Z,98006.26
2019-05-29T03:47:52.659Z,98009.27
2019-05-29T03:49:00.770Z,98004.92
2019-05-29T03:50:10.017Z,98014.11
2019-05-29T03:51:18.224Z,98017.63
2019-05-29T03:52:28.361Z,98016.43
2019-05-29T03:53:38.495Z,98013.06
2019-05-29T03:54:47.515Z,98017.77
2019-05-29T03:55:55.511Z,98019.61
2019-05-29T03:57:04.310Z,98023.78
2019-05-29T03:58:12.726Z,98022.80
2019-05-29T03:59:21.541Z,98031.16
2019-05-29T04:00:36.110Z,98030.98
2019-05-29T04:01:39.859Z,98030.80
2019-05-29T04:02:47.787Z,98034.64
2019-05-29T04:03:56.743Z,98035.98
2019-05-29T04:05:06.468Z,98035.80
2019-05-29T04:06:15.777Z,98039.49
2019-05-29T04:07:24.119Z,98044.49
2019-05-29T04:08:33.581Z,98043.51
2019-05-29T04:09:42.075Z,98051.88
2019-05-29T04:10:51.037Z,98051.37
2019-05-29T04:11:59.289Z,98056.22
2019-05-29T04:13:07.943Z,98057.23
2019-05-29T04:14:17.045Z,98055.71
2019-05-29T04:15:27.462Z,98056.07
2019-05-29T04:16:57.560Z,98057.05
2019-05-29T04:17:48.554Z,98060.09
2019-05-29T04:18:58.337Z,98065.09
2019-05-29T04:20:09.573Z,98062.56
2019-05-29T04:21:20.683Z,98065.41
2019-05-29T04:22:34.337Z,98073.45
2019-05-29T04:23:47.872Z,98078.95
2019-05-29T04:24:56.813Z,98080.63
2019-05-29T04:26:05.110Z,98080.30
2019-05-29T04:27:16.627Z,98080.48
2019-05-29T04:28:24.982Z,98088.34
2019-05-29T04:29:34.320Z,98084.31
2019-05-29T04:30:42.464Z,98092.86
2019-05-29T04:31:51.576Z,98089.67
2019-05-29T04:32:59.416Z,98095.18
2019-05-29T04:34:08.518Z,98099.20
2019-05-29T04:35:16.668Z,98102.02
2019-05-29T04:36:25.455Z,98102.38
2019-05-29T04:37:34.356Z,98108.40
2019-05-29T04:38:43.421Z,98106.55
2019-05-29T04:39:51.729Z,98109.09
2019-05-29T04:41:01.518Z,98109.23
2019-05-29T04:42:09.706Z,98113.11
2019-05-29T04:43:18.487Z,98116.14
2019-05-29T04:44:26.257Z,98122.69
2019-05-29T04:45:35.997Z,98119.17
2019-05-29T04:46:45.122Z,98131.05
2019-05-29T04:47:54.163Z,98130.55
2019-05-29T04:49:02.079Z,98132.90
2019-05-29T04:50:12.421Z,98127.53
2019-05-29T04:51:23.123Z,98136.73
2019-05-29T04:52:33.574Z,98140.25
2019-05-29T04:53:41.876Z,98146.95
2019-05-29T04:54:50.357Z,98146.44
2019-05-29T04:55:58.336Z,98151.66
2019-05-29T04:57:07.082Z,98149.63
2019-05-29T04:58:15.200Z,98148.79
2019-05-29T04:59:23.999Z,98154.80
2019-05-29T05:00:33.063Z,98171.88
2019-05-29T05:01:42.237Z,98163.04
2019-05-29T05:02:49.949Z,98168.72
2019-05-29T05:04:00.127Z,98166.73
2019-05-29T05:05:08.960Z,98168.39
2019-05-29T05:06:17.876Z,98176.94
2019-05-29T05:07:25.920Z,98172.06
2019-05-29T05:08:35.397Z,98172.56
2019-05-29T05:09:43.629Z,98178.09
2019-05-29T05:10:53.460Z,98188.16
2019-05-29T05:12:01.784Z,98180.77
2019-05-29T05:13:10.686Z,98183.30
2019-05-29T05:14:19.073Z,98181.45
2019-05-29T05:15:27.894Z,98183.12
2019-05-29T05:16:39.926Z,98186.81
2019-05-29T05:17:51.499Z,98193.17
2019-05-29T05:18:59.261Z,98191.48
2019-05-29T05:20:08.897Z,98190.65
2019-05-29T05:21:16.676Z,98199.85
2019-05-29T05:22:25.595Z,98198.53
2019-05-29T05:23:36.511Z,98198.03
2019-05-29T05:24:45.470Z,98201.69
2019-05-29T05:25:53.180Z,98203.22
2019-05-29T05:27:02.150Z,98208.90
2019-05-29T05:28:10.486Z,98210.25
2019-05-29T05:29:19.514Z,98206.41
2019-05-29T05:30:27.902Z,98209.59
2019-05-29T05:31:38.504Z,98214.27
2019-05-29T05:32:48.631Z,98220.29
2019-05-29T05:33:57.409Z,98214.95
2019-05-29T05:35:09.471Z,98225.47
2019-05-29T05:36:18.377Z,98224.83
2019-05-29T05:37:27.744Z,98223.95
2019-05-29T05:38:36.836Z,98223.81
2019-05-29T05:39:45.094Z,98225.81
2019-05-29T05:40:54.363Z,98236.70
2019-05-29T05:42:02.583Z,98238.55
2019-05-29T05:43:23.589Z,98244.23
2019-05-29T05:44:21.247Z,98241.73
2019-05-29T05:45:30.860Z,98240.55
2019-05-29T05:46:39.390Z,98246.75
2019-05-29T05:47:57.098Z,98251.09
2019-05-29T05:48:58.190Z,98243.72
2019-05-29T05:50:08.987Z,98256.77
2019-05-29T05:51:17.066Z,98254.78
2019-05-29T05:52:26.074Z,98259.11
2019-05-29T05:53:35.303Z,98261.98
2019-05-29T05:54:43.911Z,98263.15
2019-05-29T05:55:52.349Z,98265.66
2019-05-29T05:57:01.435Z,98263.30
2019-05-29T05:58:09.603Z,98266.67
2019-05-29T05:59:19.057Z,98262.48
2019-05-29T06:00:35.889Z,98269.18
2019-05-29T06:01:44.705Z,98267.84
2019-05-29T06:02:52.652Z,98266.81
2019-05-29T06:04:01.261Z,98273.19
2019-05-29T06:05:09.648Z,98273.53
2019-05-29T06:06:18.375Z,98279.88
2019-05-29T06:07:26.585Z,98270.52
2019-05-29T06:08:36.163Z,98282.08
2019-05-29T06:09:44.567Z,98281.88
2019-05-29T06:10:53.630Z,98284.92
2019-05-29T06:12:02.036Z,98282.89
2019-05-29T06:13:10.935Z,98283.23
2019-05-29T06:14:19.397Z,98286.09
2019-05-29T06:15:28.519Z,98291.25
2019-05-29T06:16:36.771Z,98303.31
2019-05-29T06:18:04.525Z,98295.95
2019-05-29T06:18:55.553Z,98300.81
2019-05-29T06:20:06.332Z,98305.98
2019-05-29T06:21:14.609Z,98312.17
2019-05-29T06:22:22.766Z,98308.15
2019-05-29T06:23:31.151Z,98313.34
2019-05-29T06:24:41.043Z,98323.38
2019-05-29T06:25:51.899Z,98321.38
2019-05-29T06:27:00.649Z,98322.05
2019-05-29T06:28:08.800Z,98325.89
2019-05-29T06:29:17.558Z,98326.71
2019-05-29T06:30:26.152Z,98332.41
2019-05-29T06:31:35.263Z,98334.08
2019-05-29T06:32:44.665Z,98331.41
2019-05-29T06:33:53.280Z,98341.10
2019-05-29T06:35:01.245Z,98342.44
2019-05-29T06:36:09.981Z,98343.28
2019-05-29T06:37:17.887Z,98350.64
2019-05-29T06:38:26.630Z,98344.45
2019-05-29T06:39:35.564Z,98341.44
2019-05-29T06:40:51.008Z,98348.30
2019-05-29T06:41:59.050Z,98351.98
2019-05-29T06:43:11.870Z,98351.14
2019-05-29T06:44:19.244Z,98360.19
2019-05-29T06:45:37.795Z,98364.84
2019-05-29T06:46:45.847Z,98362.20
2019-05-29T06:47:54.820Z,98374.38
2019-05-29T06:49:02.897Z,98378.73
2019-05-29T06:50:12.120Z,98372.20
2019-05-29T06:51:19.870Z,98371.20
2019-05-29T06:52:28.422Z,98374.05
2019-05-29T06:53:37.744Z,98374.88
2019-05-29T06:54:47.942Z,98378.90
2019-05-29T06:55:57.637Z,98381.41
2019-05-29T06:57:06.877Z,98381.91
2019-05-29T06:58:14.893Z,98381.91
2019-05-29T06:59:23.906Z,98387.94
2019-05-29T07:00:35.660Z,98390.45
2019-05-29T07:01:43.536Z,98393.63
2019-05-29T07:02:53.149Z,98397.50
2019-05-29T07:04:11.935Z,98390.81
2019-05-29T07:05:11.760Z,98397.50
2019-05-29T07:06:22.176Z,98403.02
2019-05-29T07:07:30.195Z,98398.17
2019-05-29T07:08:44.437Z,98403.02
2019-05-29T07:09:48.865Z,98396.50
2019-05-29T07:11:00.333Z,98403.19
2019-05-29T07:12:08.317Z,98405.70
2019-05-29T07:13:17.206Z,98406.38
2019-05-29T07:14:24.982Z,98407.87
2019-05-29T07:15:33.795Z,98405.53
2019-05-29T07:16:49.980Z,98408.55
2019-05-29T07:17:52.495Z,98409.22
2019-05-29T07:20:12.079Z,98415.60
2019-05-29T07:21:20.281Z,98414.42
2019-05-29T07:22:29.163Z,98414.92
2019-05-29T07:23:37.230Z,98423.49
2019-05-29T07:24:46.922Z,98421.15
2019-05-29T07:25:55.150Z,98418.97
2019-05-29T07:27:03.859Z,98419.47
2019-05-29T07:28:12.301Z,98426.98
2019-05-29T07:29:21.035Z,98428.02
2019-05-29T07:30:30.710Z,98431.52
2019-05-29T07:31:39.600Z,98427.52
2019-05-29T07:32:56.646Z,98436.88
2019-05-29T07:33:58.571Z,98431.86
2019-05-29T07:35:08.284Z,98431.64
2019-05-29T07:36:16.792Z,98434.65
2019-05-29T07:37:24.986Z,98433.81
2019-05-29T07:38:33.688Z,98437.16
2019-05-29T07:39:41.738Z,98444.52
2019-05-29T07:40:50.537Z,98443.86
2019-05-29T07:42:01.559Z,98450.58
2019-05-29T07:43:10.327Z,98449.23
2019-05-29T07:44:18.218Z,98442.20
2019-05-29T07:45:27.209Z,98444.22
2019-05-29T07:46:35.540Z,98450.27
2019-05-29T07:47:44.804Z,98449.13
2019-05-29T07:48:52.856Z,98452.64
2019-05-29T07:50:04.643Z,98458.50
2019-05-29T07:51:12.621Z,98454.98
2019-05-29T07:52:21.384Z,98460.31
2019-05-29T07:53:29.204Z,98462.16
2019-05-29T07:54:39.837Z,98464.33
2019-05-29T07:55:49.021Z,98463.83
2019-05-29T07:56:58.032Z,98470.19
2019-05-29T07:58:09.183Z,98470.69
2019-05-29T07:59:18.080Z,98466.03
2019-05-29T08:00:35.101Z,98476.08
2019-05-29T08:01:36.727Z,98470.22
2019-05-29T08:02:45.385Z,98477.41
2019-05-29T08:03:54.027Z,98476.61
2019-05-29T08:05:02.329Z,98473.79
2019-05-29T08:06:12.839Z,98477.47
2019-05-29T08:07:21.047Z,98482.66
2019-05-29T08:08:29.958Z,98481.48
2019-05-29T08:09:39.216Z,98480.14
2019-05-29T08:10:49.660Z,98484.50
2019-05-29T08:11:57.736Z,98487.38
2019-05-29T08:13:06.721Z,98486.23
2019-05-29T08:14:14.594Z,98494.09
2019-05-29T08:15:23.501Z,98496.27
2019-05-29T08:16:31.783Z,98488.52
2019-05-29T08:17:42.076Z,98497.92
2019-05-29T08:18:52.840Z,98495.05
2019-05-29T08:20:06.781Z,98502.75
2019-05-29T08:21:10.922Z,98500.41
2019-05-29T08:22:33.243Z,98498.73
2019-05-29T08:23:29.819Z,98507.10
2019-05-29T08:24:38.719Z,98504.92
2019-05-29T08:25:47.638Z,98504.92
2019-05-29T08:26:56.722Z,98506.74
2019-05-29T08:28:05.115Z,98506.58
2019-05-29T08:29:13.930Z,98507.08
2019-05-29T08:30:22.928Z,98513.27
2019-05-29T08:31:32.243Z,98510.45
2019-05-29T08:32:40.855Z,98510.90
2019-05-29T08:33:51.218Z,98515.42
2019-05-29T08:34:59.510Z,98515.42
2019-05-29T08:36:08.421Z,98524.96
2019-05-29T08:37:16.407Z,98523.82
2019-05-29T08:38:25.323Z,98520.64
2019-05-29T08:39:36.882Z,98525.49
2019-05-29T08:40:43.849Z,98528.70
2019-05-29T08:42:19.340Z,98531.05
2019-05-29T08:43:02.436Z,98526.19
2019-05-29T08:44:10.504Z,98530.71
2019-05-29T08:45:20.283Z,98534.23
2019-05-29T08:46:28.457Z,98539.09
2019-05-29T08:47:37.540Z,98537.44
2019-05-29T08:48:45.941Z,98542.44
2019-05-29T08:49:55.031Z,98540.77
2019-05-29T08:51:03.238Z,98545.59
2019-05-29T08:52:12.728Z,98550.64
2019-05-29T08:53:20.909Z,98550.78
2019-05-29T08:54:29.740Z,98547.05
2019-05-29T08:55:42.041Z,98549.60
2019-05-29T08:56:50.958Z,98551.58
2019-05-29T08:57:58.907Z,98548.36
2019-05-29T08:59:07.618Z,98553.25
2019-05-29T09:00:19.594Z,98559.48
2019-05-29T09:01:28.549Z,98558.81
2019-05-29T09:02:36.618Z,98559.31
2019-05-29T09:03:46.736Z,98563.70
2019-05-29T09:04:55.193Z,98568.52
2019-05-29T09:06:08.860Z,98563.50
2019-05-29T09:07:14.011Z,98570.53
2019-05-29T09:08:22.833Z,98573.91
2019-05-29T09:09:30.760Z,98573.91
2019-05-29T09:10:39.825Z,98576.73
2019-05-29T09:11:47.973Z,98573.38
2019-05-29T09:13:04.725Z,98581.92
2019-05-29T09:14:07.213Z,98577.56
2019-05-29T09:15:21.066Z,98587.73
2019-05-29T09:16:27.254Z,98589.12
2019-05-29T09:17:36.363Z,98587.44
2019-05-29T09:18:44.522Z,98592.13
2019-05-29T09:19:53.675Z,98587.98
2019-05-29T09:21:04.038Z,98589.69
2019-05-29T09:22:13.755Z,98597.56
2019-05-29T09:23:23.307Z,98595.05
2019-05-29T09:24:32.224Z,98593.20
2019-05-29T09:25:40.307Z,98596.39
2019-05-29T09:26:49.640Z,98599.06
2019-05-29T09:27:57.948Z,98593.20
2019-05-29T09:29:06.734Z,98588.82
2019-05-29T09:30:16.674Z,98599.20
2019-05-29T09:31:26.172Z,98600.70
2019-05-29T09:32:49.487Z,98595.98
2019-05-29T09:33:45.163Z,98604.05
2019-05-29T09:34:53.668Z,98605.39
2019-05-29T09:36:03.039Z,98604.72
2019-05-29T09:37:11.000Z,98612.09
2019-05-29T09:38:20.964Z,98612.39
2019-05-29T09:39:29.256Z,98614.23
2019-05-29T09:40:38.415Z,98616.06
2019-05-29T09:41:46.771Z,98621.09
2019-05-29T09:42:55.458Z,98627.42
2019-05-29T09:44:03.509Z,98634.12
2019-05-29T09:45:12.918Z,98633.44
2019-05-29T09:46:21.900Z,98631.39
2019-05-29T09:47:31.230Z,98636.07
2019-05-29T09:48:49.299Z,98640.09
2019-05-29T09:49:50.422Z,98633.23
2019-05-29T09:50:58.454Z,98646.78
2019-05-29T09:52:08.022Z,98650.30
2019-05-29T09:53:15.894Z,98646.12
2019-05-29T09:54:28.411Z,98649.30
2019-05-29T09:55:36.517Z,98651.80
2019-05-29T09:56:45.547Z,98647.13
2019-05-29T09:57:54.118Z,98654.86
2019-05-29T09:59:04.121Z,98658.22
2019-05-29T10:00:13.059Z,98652.81
2019-05-29T10:01:24.371Z,98659.38
2019-05-29T10:02:31.576Z,98659.02
2019-05-29T10:03:40.444Z,98663.53
2019-05-29T10:04:48.535Z,98661.56
2019-05-29T10:05:59.366Z,98662.57
2019-05-29T10:07:07.471Z,98662.91
2019-05-29T10:08:17.137Z,98661.23
2019-05-29T10:09:25.360Z,98663.25
2019-05-29T10:10:34.083Z,98663.25
2019-05-29T10:11:42.353Z,98659.94
2019-05-29T10:12:51.204Z,98659.11
2019-05-29T10:14:00.440Z,98659.44
2019-05-29T10:15:11.414Z,98655.62
2019-05-29T10:16:19.223Z,98653.63
2019-05-29T10:17:28.176Z,98648.38
2019-05-29T10:18:36.047Z,98655.62
2019-05-29T10:19:44.896Z,98656.45
2019-05-29T10:20:53.201Z,98653.81
2019-05-29T10:22:04.017Z,98651.16
2019-05-29T10:23:13.527Z,98658.20
2019-05-29T10:24:22.158Z,98654.52
2019-05-29T10:25:30.360Z,98654.88
2019-05-29T10:26:38.952Z,98657.93
2019-05-29T10:27:47.463Z,98659.61
2019-05-29T10:30:08.515Z,98660.64
2019-05-29T10:31:17.653Z,98662.63
2019-05-29T10:32:25.769Z,98668.35
2019-05-29T10:33:34.659Z,98663.96
2019-05-29T10:34:38.778Z,98659.13
2019-05-29T10:34:42.671Z,98665.64
2019-05-29T10:35:54.804Z,98665.97
2019-05-29T10:37:01.354Z,98664.64
2019-05-29T10:38:10.455Z,98659.91
2019-05-29T10:39:18.653Z,98658.57
2019-05-29T10:40:27.458Z,98667.25
2019-05-29T10:41:35.822Z,98663.90
2019-05-29T10:42:45.156Z,98667.92
2019-05-29T10:43:53.406Z,98666.61
2019-05-29T10:45:02.622Z,98668.92
2019-05-29T10:46:10.871Z,98682.33
2019-05-29T10:47:19.877Z,98679.27
2019-05-29T10:48:27.829Z,98679.78
2019-05-29T10:49:36.846Z,98686.14
2019-05-29T10:50:47.868Z,98684.94
2019-05-29T10:52:12.882Z,98691.30
2019-05-29T10:53:05.084Z,98692.80
2019-05-29T10:54:13.964Z,98689.95
2019-05-29T10:55:24.670Z,98693.44
2019-05-29T10:56:33.688Z,98691.63
2019-05-29T10:57:41.776Z,98697.33
2019-05-29T10:58:56.458Z,98698.70
2019-05-29T11:00:00.580Z,98698.00
2019-05-29T11:01:09.370Z,98699.67
2019-05-29T11:02:17.545Z,98699.34
2019-05-29T11:03:26.498Z,98704.37
2019-05-29T11:04:34.618Z,98700.34
2019-05-29T11:05:43.339Z,98709.05
2019-05-29T11:06:52.429Z,98703.31
2019-05-29T11:08:02.346Z,98703.81
2019-05-29T11:09:10.612Z,98705.50
2019-05-29T11:10:19.925Z,98707.00
2019-05-29T11:11:27.802Z,98704.98
2019-05-29T11:12:39.278Z,98705.08
2019-05-29T11:13:46.704Z,98704.44
2019-05-29T11:14:55.248Z,98707.33
2019-05-29T11:16:03.187Z,98707.67
2019-05-29T11:17:12.464Z,98710.55
2019-05-29T11:18:20.407Z,98705.03
2019-05-29T11:19:29.413Z,98702.19
2019-05-29T11:20:38.187Z,98706.03
2019-05-29T11:21:48.070Z,98708.55
2019-05-29T11:22:57.789Z,98706.04
2019-05-29T11:24:07.392Z,98711.73
2019-05-29T11:25:22.410Z,98713.92
2019-05-29T11:26:26.161Z,98710.94
2019-05-29T11:27:34.301Z,98715.97
2019-05-29T11:28:43.259Z,98718.14
2019-05-29T11:29:53.260Z,98714.49
2019-05-29T11:31:06.081Z,98718.52
2019-05-29T11:32:12.293Z,98723.88
2019-05-29T11:33:20.719Z,98717.17
2019-05-29T11:34:28.977Z,98719.36
2019-05-29T11:35:38.174Z,98721.32
2019-05-29T11:36:46.249Z,98721.12
2019-05-29T11:37:56.479Z,98728.48
2019-05-29T11:39:06.555Z,98722.13
2019-05-29T11:40:15.943Z,98724.12
2019-05-29T11:41:26.617Z,98725.80
2019-05-29T11:42:34.498Z,98727.98
2019-05-29T11:43:42.764Z,98727.44
2019-05-29T11:44:53.309Z,98729.28
2019-05-29T11:46:01.946Z,98730.95
2019-05-29T11:47:10.814Z,98729.81
2019-05-29T11:48:18.831Z,98737.53
2019-05-29T11:49:27.585Z,98737.53
2019-05-29T11:50:35.889Z,98733.51
2019-05-29T11:51:44.676Z,98738.03
2019-05-29T11:52:54.421Z,98739.20
2019-05-29T11:54:03.265Z,98742.34
2019-05-29T11:55:11.974Z,98737.98
2019-05-29T11:56:20.835Z,98740.88
2019-05-29T11:57:28.919Z,98745.73
2019-05-29T11:58:37.834Z,98747.58
2019-05-29T11:59:45.748Z,98746.73
2019-05-29T12:00:55.061Z,98747.08
2019-05-29T12:02:03.583Z,98742.73
2019-05-29T12:03:12.683Z,98739.03
2019-05-29T12:04:26.302Z,98746.03
2019-05-29T12:05:31.366Z,98740.84
2019-05-29T12:06:39.335Z,98745.36
2019-05-29T12:07:48.213Z,98754.57
2019-05-29T12:08:57.866Z,98752.22
2019-05-29T12:10:09.747Z,98754.69
2019-05-29T12:11:18.174Z,98751.55
2019-05-29T12:12:26.973Z,98747.86
2019-05-29T12:13:35.062Z,98753.47
2019-05-29T12:14:59.055Z,98756.15
2019-05-29T12:15:53.995Z,98759.46
2019-05-29T12:17:03.111Z,98765.82
2019-05-29T12:18:23.551Z,98759.33
2019-05-29T12:19:22.354Z,98759.67
2019-05-29T12:20:30.717Z,98754.93
2019-05-29T12:21:42.596Z,98757.11
2019-05-29T12:23:13.364Z,98761.47
2019-05-29T12:24:00.267Z,98758.13
2019-05-29T12:25:08.558Z,98757.28
2019-05-29T12:26:22.831Z,98759.46
2019-05-29T12:27:27.421Z,98767.20
2019-05-29T12:28:36.198Z,98765.91
2019-05-29T12:29:44.129Z,98763.78
2019-05-29T12:30:53.547Z,98762.66
2019-05-29T12:32:08.347Z,98766.55
2019-05-29T12:33:13.710Z,98760.86
2019-05-29T12:34:21.802Z,98766.89
2019-05-29T12:35:30.431Z,98758.64
2019-05-29T12:36:38.472Z,98767.05
2019-05-29T12:37:47.582Z,98768.02
2019-05-29T12:38:55.744Z,98765.34
2019-05-29T12:40:06.375Z,98757.97
2019-05-29T12:41:14.745Z,98765.17
2019-05-29T12:42:23.575Z,98766.67
2019-05-29T12:43:31.506Z,98767.34
2019-05-29T12:44:40.310Z,98762.27
2019-05-29T12:45:48.409Z,98769.64
2019-05-29T12:46:57.747Z,98771.98
2019-05-29T12:48:12.488Z,98771.31
2019-05-29T12:49:16.805Z,98775.34
2019-05-29T12:50:25.008Z,98770.98
2019-05-29T12:51:33.763Z,98768.52
2019-05-29T12:52:42.303Z,98774.51
2019-05-29T12:53:50.971Z,98766.80
2019-05-29T12:54:59.997Z,98773.49
2019-05-29T12:56:08.904Z,98776.34
2019-05-29T12:57:16.965Z,98780.65
2019-05-29T12:58:25.605Z,98775.00
2019-05-29T12:59:33.763Z,98782.49
2019-05-29T13:00:42.637Z,98778.68
2019-05-29T13:01:50.583Z,98780.98
2019-05-29T13:03:00.745Z,98781.38
2019-05-29T13:04:08.827Z,98781.05
2019-05-29T13:05:20.916Z,98776.86
2019-05-29T13:06:29.308Z,98781.38
2019-05-29T13:07:38.321Z,98778.54
2019-05-29T13:08:46.322Z,98782.90
2019-05-29T13:09:56.719Z,98781.61
2019-05-29T13:11:05.170Z,98783.33
2019-05-29T13:12:14.338Z,98784.04
2019-05-29T13:13:22.502Z,98786.72
2019-05-29T13:14:31.475Z,98792.80
2019-05-29T13:15:39.504Z,98794.98
2019-05-29T13:16:48.625Z,98793.43
2019-05-29T13:18:02.444Z,98791.75
2019-05-29T13:19:07.685Z,98797.11
2019-05-29T13:20:22.342Z,98796.11
2019-05-29T13:21:31.569Z,98799.28
2019-05-29T13:22:39.596Z,98803.92
2019-05-29T13:23:48.177Z,98799.02
2019-05-29T13:24:57.357Z,98802.25
2019-05-29T13:26:06.455Z,98804.72
2019-05-29T13:27:14.445Z,98804.05
2019-05-29T13:28:23.222Z,98804.52
2019-05-29T13:29:31.269Z,98810.03
2019-05-29T13:30:41.265Z,98811.20
2019-05-29T13:31:49.235Z,98813.27